ADDS METAR Data INFO
IDs: Format: Raw Decoded Include TAF

Data at: 1717 UTC 23 Oct 2017

KCVN 231656Z AUTO 03020KT 10SM 23/02 A3025 RMK AO2 SLP219 T02280017 $
KCVN 231556Z AUTO 36013KT 10SM 21/02 A3023 RMK AO2 SLP217 T02060022 $
KCVN 231456Z AUTO 34010KT 10SM 17/02 A3022 RMK AO2 SLP215 T01720022 53021 $
KCVN 231356Z AUTO 33008KT 10SM 12/02 A3017 RMK AO2 SLP207 T01170017 $
KCVN 231256Z AUTO 33009KT 10SM 11/01 A3016 RMK AO2 SLP201 T01110006 $
KCVN 231156Z AUTO 33010KT 10SM 12/01 A3014 RMK AO2 SLP188 T01220006 10122 20056 53001 $
KCVN 231056Z AUTO 33007KT 10SM 11/01 A3013 RMK AO2 SLP181 T01110006 $
KCVN 230956Z AUTO 30009KT 10SM 08/02 A3013 RMK AO2 SLP185 T00780017 $
KCVN 230856Z AUTO 29010KT 10SM 07/02 A3014 RMK AO2 SLP189 T00720017 56010 $
KCVN 230756Z AUTO 28009KT 10SM 07/02 A3015 RMK AO2 SLP193 T00720017 $
KCVN 230656Z AUTO 25007KT 10SM 06/01 A3016 RMK AO2 SLP199 T00560011 402000017 $
KCVN 230556Z AUTO 24008KT 10SM 06/01 A3017 RMK AO2 SLP205 T00610011 10161 20061 58011 $
KCVN 230456Z AUTO 25007KT 10SM 08/01 A3019 RMK AO2 SLP211 T00780006 $
KCVN 230356Z AUTO 23008KT 10SM 07/01 A3020 RMK AO2 SLP217 T00720011 $
KCVN 230256Z AUTO 22006KT 10SM 09/01 A3021 RMK AO2 SLP222 T00890011 53001 $
KCVN 230156Z AUTO 23010KT 10SM 10/01 A3020 RMK AO2 SLP226 T01000011 $
KCVN 230056Z AUTO 23009KT 10SM 11/02 A3021 RMK AO2 SLP231 T01110017 $
KCVN 222356Z AUTO 21005KT 10SM 16/01 A3021 RMK AO2 SLP223 T01610006 10200 20161 55007 $
KCVN 222256Z AUTO 22010KT 10SM 19/M02 A3021 RMK AO2 SLP218 T01891017 $
KCVN 222156Z AUTO 22012KT 10SM 20/M02 A3022 RMK AO2 SLP222 T02001017 $
KCVN 222056Z AUTO 24014G18KT 10SM 19/M03 A3023 RMK AO2 SLP226 T01891028 56030 $
KCVN 221956Z AUTO 23011KT 10SM 19/M02 A3025 RMK AO2 SLP232 T01891022 $
KCVN 221856Z AUTO 23011G17KT 10SM 18/M01 A3029 RMK AO2 SLP248 T01831011 $
KCVN 221756Z AUTO 21011G16KT 10SM 17/M02 A3033 RMK AO2 SLP261 T01671017 10167 20017 58005 $
KCVN 221656Z AUTO 20009KT 10SM 15/M01 A3034 RMK AO2 SLP265 T01501006 $
KCVN 221556Z AUTO 20007KT 10SM CLR 14/M01 A3035 RMK AO2 SLP270 T01391011
KCVN 221456Z AUTO 00000KT 10SM CLR 11/02 A3034 RMK AO2 SLP272 T01060022 53008
KCVN 221356Z AUTO 00000KT 10SM CLR 04/01 A3033 RMK AO2 SLP273 T00440011
KCVN 221256Z AUTO 32004KT 10SM FEW002 02/M01 A3032 RMK AO2 SLP268 T00221006 FZRANO
KCVN 221251Z AUTO 32004KT 10SM FEW002 02/M01 A3032 RMK AO2 FZRANO
KCVN 221156Z AUTO 32008KT 10SM CLR 03/M01 A3031 RMK AO2 SLP259 T00281006 10056 20022 53018
KCVN 221056Z AUTO 33006KT 10SM CLR 03/00 A3028 RMK AO2 SLP248 T00330000
KCVN 220956Z AUTO 30005KT 10SM CLR 03/00 A3026 RMK AO2 SLP235 T00280000
KCVN 220856Z AUTO 31005KT 10SM CLR 03/00 A3025 RMK AO2 SLP228 T00280000 51019
KCVN 220756Z AUTO 35004KT 10SM CLR 04/01 A3024 RMK AO2 SLP221 T00440006
KCVN 220656Z AUTO 32004KT 10SM CLR 03/01 A3022 RMK AO2 SLP218 T00330006 402390033
KCVN 220556Z AUTO 33003KT 10SM CLR 05/02 A3018 RMK AO2 SLP203 60000 T00500017 10144 20050 51026